Main page
METAR-TAF:

METAR-TAF

Airports :

Clovis Municipal Airport

Clovis, New Mexico, United States

latitude: 34-26N, longitude: 103-05W, elevation: 4212 ft

Current weather observation

The report was made 1 hour and 0 minutes ago, at 01:56 UTC
Wind 7 mph from the East
Temperature 82°F
Humidity 45%
Pressure 29.82 in. Hg
Visibility: 10 miles
Clear sky

METAR: KCVN 240156Z AUTO 10006KT 10SM CLR 28/15 A2982 RMK AO2 SLP052 T02830150

Time: 20:56 (02:56 UTC)


TAF: missing

Weather observations and forecasts of more than 4000 airports (METAR and TAF reports).

The available stations are represented by yellow and red dots on the map.

Hover mouse over dot to see the name of the station.

Then click to see weather observations and forecasts.

To change the map : click on the green buttons with a black cross to zoom in, on the green button with a dash to zoom out, or on the green arrows for adjacent maps.


METAR-TAF: